Time;durP1;ratioP1;P1;durP2;ratioP2;P2;SDS_P1;SDS_P2;PMS_P1;PMS_P2;Temp;Humidity;BMP_temperature;BMP_pressure;BME280_temperature;BME280_humidity;BME280_pressure;Samples;Min_cycle;Max_cycle;Signal;HPM_P1;HPM_P2
2021/10/23 00:00:42;;;;;;;19.00;3.35;;;;;;;12.86;59.58;101189.63;4795263;28;119862;-76
2021/10/23 00:03:08;;;;;;;21.98;3.58;;;;;;;12.91;59.60;101196.53;4841259;28;121421;-76
2021/10/23 00:05:35;;;;;;;15.02;2.70;;;;;;;12.93;58.69;101190.56;4824938;28;120593;-76
2021/10/23 00:08:01;;;;;;;17.80;3.80;;;;;;;12.95;58.58;101196.38;4828818;28;119530;-76
2021/10/23 00:10:27;;;;;;;29.75;4.93;;;;;;;12.96;58.58;101206.16;4824217;28;119457;-76
2021/10/23 00:12:53;;;;;;;23.20;3.42;;;;;;;12.97;59.05;101205.72;4809208;28;121469;-76
2021/10/23 00:15:18;;;;;;;23.60;3.80;;;;;;;13.04;58.83;101223.97;4824525;28;119626;-76
2021/10/23 00:17:44;;;;;;;19.75;3.13;;;;;;;13.03;58.89;101214.94;4813557;28;119537;-75
2021/10/23 00:20:10;;;;;;;25.15;4.63;;;;;;;13.09;59.17;101217.84;4822479;28;119455;-76
2021/10/23 00:22:37;;;;;;;22.08;3.65;;;;;;;13.09;59.35;101221.38;4824150;28;119460;-76
2021/10/23 00:25:03;;;;;;;20.50;4.00;;;;;;;13.08;59.24;101221.84;4820275;28;120682;-76
2021/10/23 00:27:29;;;;;;;21.73;3.80;;;;;;;13.14;59.28;101231.78;4830708;28;119217;-76
2021/10/23 00:29:55;;;;;;;25.83;4.20;;;;;;;13.17;59.33;101241.13;4806972;28;121731;-76
2021/10/23 00:32:21;;;;;;;31.10;3.53;;;;;;;13.17;59.66;101241.94;4823206;28;119584;-76
2021/10/23 00:34:46;;;;;;;21.73;3.30;;;;;;;13.19;59.21;101236.72;4825306;28;120790;-76
2021/10/23 00:37:12;;;;;;;29.23;3.60;;;;;;;13.18;59.23;101239.94;4814919;28;119697;-76
2021/10/23 00:39:38;;;;;;;16.77;2.88;;;;;;;13.20;59.59;101245.75;4829420;28;119952;-76
2021/10/23 00:42:04;;;;;;;28.00;3.33;;;;;;;13.20;59.47;101259.53;4807352;28;119771;-76
2021/10/23 00:44:36;;;;;;;21.23;3.55;;;;;;;13.17;59.45;101274.19;4810852;28;120129;-76
2021/10/23 00:47:07;;;;;;;16.05;3.00;;;;;;;13.16;59.70;101286.41;4836971;28;119476;-76
2021/10/23 00:49:34;;;;;;;17.10;3.38;;;;;;;13.20;60.33;101289.84;4823223;28;119751;-75
2021/10/23 00:52:02;;;;;;;21.60;2.58;;;;;;;13.22;59.75;101292.91;4830886;28;119373;-76
2021/10/23 00:54:29;;;;;;;20.08;3.47;;;;;;;13.22;59.09;101287.38;4824690;28;119879;-76
2021/10/23 00:56:56;;;;;;;16.83;2.53;;;;;;;13.19;59.33;101293.81;4811513;28;120061;-76
2021/10/23 00:59:22;;;;;;;17.08;3.08;;;;;;;13.19;58.93;101307.56;4818143;28;120837;-76
2021/10/23 01:01:48;;;;;;;21.60;3.47;;;;;;;13.18;58.77;101303.28;4821196;28;119867;-76
2021/10/23 01:04:14;;;;;;;20.55;2.65;;;;;;;13.20;59.04;101300.84;4805813;29;120505;-76
2021/10/23 01:06:40;;;;;;;14.80;2.97;;;;;;;13.21;59.06;101294.13;4795357;29;119600;-76
2021/10/23 01:09:06;;;;;;;15.73;2.85;;;;;;;13.21;58.92;101300.41;4809136;28;120194;-76
2021/10/23 01:11:33;;;;;;;22.27;3.40;;;;;;;13.19;59.07;101299.31;4822754;28;120119;-76
2021/10/23 01:13:59;;;;;;;25.67;3.47;;;;;;;13.20;58.97;101306.34;4805493;28;119557;-75
2021/10/23 01:16:24;;;;;;;19.60;2.63;;;;;;;13.20;59.13;101300.84;4827121;28;119808;-76
2021/10/23 01:18:50;;;;;;;15.95;2.90;;;;;;;13.22;59.33;101317.69;4808595;29;121556;-76
2021/10/23 01:21:20;;;;;;;25.77;3.85;;;;;;;13.20;59.54;101334.69;4833096;28;120596;-76
2021/10/23 01:23:46;;;;;;;17.55;3.22;;;;;;;13.25;59.64;101313.25;4819877;28;119421;-76
2021/10/23 01:26:12;;;;;;;19.27;3.03;;;;;;;13.25;59.43;101330.59;4822974;28;120306;-76
2021/10/23 01:28:38;;;;;;;23.95;3.50;;;;;;;13.23;59.33;101321.97;4812484;28;120962;-76
2021/10/23 01:31:04;;;;;;;15.40;2.92;;;;;;;13.23;59.71;101326.72;4806806;29;120973;-76
2021/10/23 01:33:29;;;;;;;21.63;3.25;;;;;;;13.19;59.83;101332.38;4825051;28;119410;-76
2021/10/23 01:36:08;;;;;;;19.80;3.08;;;;;;;13.21;59.68;101335.44;4808567;29;119655;-76
2021/10/23 01:38:33;;;;;;;17.65;3.20;;;;;;;13.14;59.83;101321.91;4822538;28;119903;-76
2021/10/23 01:40:59;;;;;;;14.77;2.88;;;;;;;13.16;60.04;101338.75;4830242;28;119871;-76
2021/10/23 01:43:24;;;;;;;19.73;3.17;;;;;;;13.09;59.97;101328.03;4809344;28;120041;-76
2021/10/23 01:45:50;;;;;;;19.05;3.08;;;;;;;13.10;60.14;101329.56;4804481;28;119521;-76
2021/10/23 01:48:16;;;;;;;21.25;3.80;;;;;;;13.10;60.42;101335.06;4823385;28;120914;-76
2021/10/23 01:50:42;;;;;;;22.10;3.00;;;;;;;13.10;60.48;101329.56;4810658;28;121864;-75
2021/10/23 01:53:07;;;;;;;16.73;2.92;;;;;;;13.06;60.69;101331.69;4826589;28;119642;-76
2021/10/23 01:55:33;;;;;;;21.15;3.60;;;;;;;13.04;60.83;101331.38;4809938;28;119741;-76
2021/10/23 01:57:59;;;;;;;25.83;3.65;;;;;;;12.98;61.00;101330.41;4821537;28;121874;-76
2021/10/23 02:00:24;;;;;;;21.50;3.00;;;;;;;12.99;60.91;101331.94;4818631;28;119396;-76
2021/10/23 02:02:50;;;;;;;16.92;2.60;;;;;;;13.01;60.73;101366.09;4827590;28;120019;-75
2021/10/23 02:05:16;;;;;;;26.63;3.33;;;;;;;13.02;60.59;101366.84;4814929;29;119483;-76
2021/10/23 02:07:41;;;;;;;17.38;2.67;;;;;;;12.98;60.82;101350.44;4807316;28;120909;-76
2021/10/23 02:10:08;;;;;;;18.40;2.70;;;;;;;13.04;60.73;101345.91;4812436;28;120362;-76
2021/10/23 02:12:34;;;;;;;17.40;2.78;;;;;;;13.06;60.78;101350.97;4843247;28;120843;-76
2021/10/23 02:15:01;;;;;;;16.17;2.60;;;;;;;13.05;60.50;101341.16;4812221;29;119899;-76
2021/10/23 02:17:26;;;;;;;20.25;2.85;;;;;;;13.06;61.02;101346.22;4821379;28;119801;-76
2021/10/23 02:19:52;;;;;;;13.25;2.45;;;;;;;13.07;60.77;101353.25;4812203;28;119542;-76
2021/10/23 02:22:18;;;;;;;17.52;2.90;;;;;;;13.06;60.49;101356.47;4824331;28;120768;-75
2021/10/23 02:24:43;;;;;;;18.08;2.63;;;;;;;13.04;60.67;101359.69;4812551;29;120735;-75
2021/10/23 02:27:09;;;;;;;16.33;2.28;;;;;;;13.02;60.50;101361.34;4827182;28;120132;-76
2021/10/23 02:29:37;;;;;;;15.98;2.47;;;;;;;12.94;60.21;101349.81;4805530;28;119844;-76
2021/10/23 02:32:03;;;;;;;23.20;2.70;;;;;;;12.93;60.88;101358.53;4829368;28;119538;-76
2021/10/23 02:34:29;;;;;;;13.13;2.25;;;;;;;12.94;61.17;101363.56;4825817;28;119600;-76
2021/10/23 02:36:54;;;;;;;14.77;2.25;;;;;;;12.91;60.93;101359.75;4829304;28;120131;-76
2021/10/23 02:39:20;;;;;;;20.33;2.38;;;;;;;12.85;60.47;101364.31;4825720;28;120008;-76
2021/10/23 02:41:46;;;;;;;17.08;3.08;;;;;;;12.81;60.20;101363.66;4811304;28;119834;-76
2021/10/23 02:44:12;;;;;;;15.95;2.78;;;;;;;12.84;60.35;101381.28;4805827;28;119415;-76
2021/10/23 02:46:37;;;;;;;16.85;2.45;;;;;;;12.81;60.61;101382.94;4818103;28;119580;-75
2021/10/23 02:49:05;;;;;;;11.80;2.58;;;;;;;12.81;60.57;101369.19;4811980;28;119677;-76
2021/10/23 02:51:30;;;;;;;14.82;3.08;;;;;;;12.91;60.74;101381.78;4816806;28;119869;-75
2021/10/23 02:53:56;;;;;;;18.58;2.55;;;;;;;12.94;60.65;101387.59;4821087;28;120127;-76
2021/10/23 02:56:21;;;;;;;12.80;2.08;;;;;;;12.95;60.56;101380.88;4804719;29;120758;-76
2021/10/23 02:58:47;;;;;;;21.92;2.58;;;;;;;12.91;60.45;101381.78;4817301;28;119537;-76
2021/10/23 03:01:13;;;;;;;18.48;2.55;;;;;;;13.01;60.03;101384.56;4830256;28;120224;-76
2021/10/23 03:03:38;;;;;;;15.63;2.53;;;;;;;13.05;60.38;101390.75;4808911;29;121832;-76
2021/10/23 03:06:04;;;;;;;22.20;3.10;;;;;;;13.06;60.79;101395.03;4822398;28;123257;-76
2021/10/23 03:08:30;;;;;;;11.30;2.15;;;;;;;13.07;60.30;101400.09;4829001;28;120364;-76
2021/10/23 03:10:55;;;;;;;15.45;2.83;;;;;;;13.10;60.61;101407.44;4821045;28;119807;-75
2021/10/23 03:13:21;;;;;;;17.63;2.35;;;;;;;13.11;60.75;101397.19;4805021;29;121452;-75
2021/10/23 03:15:47;;;;;;;14.52;2.50;;;;;;;13.13;60.41;101403.03;4824336;28;119494;-76
2021/10/23 03:18:12;;;;;;;19.85;2.97;;;;;;;13.16;60.32;101402.88;4823525;28;119588;-75
2021/10/23 03:20:38;;;;;;;16.95;2.38;;;;;;;13.17;60.14;101411.91;4822794;28;120791;-75
2021/10/23 03:23:03;;;;;;;19.65;3.00;;;;;;;13.16;59.62;101419.41;4824131;28;119871;-76
2021/10/23 03:25:29;;;;;;;13.98;2.63;;;;;;;13.14;59.91;101421.09;4822948;28;119899;-77
2021/10/23 03:27:55;;;;;;;19.02;2.70;;;;;;;13.13;60.23;101423.06;4824967;28;119999;-75
2021/10/23 03:30:25;;;;;;;18.15;3.17;;;;;;;13.16;60.87;101430.44;4827471;28;120376;-76
2021/10/23 03:32:51;;;;;;;17.15;2.30;;;;;;;13.16;60.97;101435.16;4826949;28;119377;-76
2021/10/23 03:35:17;;;;;;;18.10;2.60;;;;;;;13.14;61.48;101434.84;4821239;28;119964;-76
2021/10/23 03:37:42;;;;;;;18.80;3.13;;;;;;;13.12;61.72;101431.78;4822423;28;119782;-76
2021/10/23 03:40:08;;;;;;;15.77;2.50;;;;;;;13.10;61.75;101435.00;4823886;28;119652;-76
2021/10/23 03:42:34;;;;;;;16.52;2.78;;;;;;;13.04;61.74;101433.28;4822253;28;119965;-76
2021/10/23 03:45:00;;;;;;;17.38;3.15;;;;;;;13.05;62.05;101438.31;4807376;29;119624;-75
2021/10/23 03:47:25;;;;;;;27.83;4.30;;;;;;;13.01;62.23;101440.44;4809784;29;119996;-76
2021/10/23 03:49:51;;;;;;;18.65;3.42;;;;;;;13.01;62.09;101447.91;4817796;28;125101;-76
2021/10/23 03:52:16;;;;;;;15.40;2.70;;;;;;;12.99;62.12;101440.09;4812655;28;119792;-75
2021/10/23 03:54:42;;;;;;;16.35;3.20;;;;;;;12.97;62.23;101444.53;4810686;29;119528;-75
2021/10/23 03:57:09;;;;;;;16.58;3.05;;;;;;;12.96;62.07;101452.00;4808304;29;120268;-76
2021/10/23 03:59:34;;;;;;;16.25;2.35;;;;;;;12.94;61.98;101442.66;4819186;28;119957;-76
2021/10/23 04:02:00;;;;;;;16.92;2.92;;;;;;;12.94;62.34;101448.19;4826716;28;120432;-75
2021/10/23 04:04:26;;;;;;;15.20;2.70;;;;;;;12.92;62.45;101456.88;4823607;28;119701;-76
2021/10/23 04:06:51;;;;;;;16.95;2.83;;;;;;;12.88;62.42;101465.28;4824516;28;120073;-76
2021/10/23 04:09:17;;;;;;;25.52;2.50;;;;;;;12.88;62.55;101476.28;4826871;28;121454;-76
2021/10/23 04:11:43;;;;;;;19.75;2.90;;;;;;;12.85;62.18;101482.69;4822907;28;119804;-76
2021/10/23 04:14:09;;;;;;;16.25;3.05;;;;;;;12.84;61.88;101480.38;4817324;28;119555;-75
2021/10/23 04:16:34;;;;;;;15.40;2.45;;;;;;;12.82;61.98;101480.84;4824216;28;119601;-76
2021/10/23 04:19:00;;;;;;;18.25;2.50;;;;;;;12.85;62.35;101495.69;4828574;28;121230;-76
2021/10/23 04:21:26;;;;;;;17.45;3.15;;;;;;;12.85;62.21;101492.94;4814744;29;119472;-76
2021/10/23 04:23:52;;;;;;;13.60;2.47;;;;;;;12.91;62.21;101504.91;4823763;28;119569;-75
2021/10/23 04:26:17;;;;;;;15.02;2.42;;;;;;;12.90;62.10;101495.88;4830415;28;119535;-76
2021/10/23 04:28:43;;;;;;;18.20;3.08;;;;;;;12.87;61.92;101477.50;4809223;28;121907;-76
2021/10/23 04:31:08;;;;;;;12.50;2.03;;;;;;;12.94;62.27;101483.97;4814710;28;119931;-76
2021/10/23 04:33:35;;;;;;;15.10;3.03;;;;;;;12.91;62.41;101480.91;4822960;28;119809;-76
2021/10/23 04:36:00;;;;;;;24.80;3.33;;;;;;;12.91;61.66;101502.94;4830490;28;119942;-76
2021/10/23 04:38:26;;;;;;;18.02;2.33;;;;;;;12.96;61.68;101489.81;4824916;28;119429;-76
2021/10/23 04:40:52;;;;;;;17.40;2.83;;;;;;;12.97;62.22;101491.34;4807379;28;120672;-76
2021/10/23 04:43:17;;;;;;;16.98;3.00;;;;;;;13.00;61.99;101506.97;4828234;28;120254;-76
2021/10/23 04:45:43;;;;;;;15.57;3.20;;;;;;;12.97;62.00;101507.88;4823372;28;119483;-76
2021/10/23 04:48:09;;;;;;;13.30;2.63;;;;;;;12.96;61.80;101511.84;4825030;28;119605;-76
2021/10/23 04:50:34;;;;;;;16.55;2.70;;;;;;;12.94;61.72;101519.78;4828398;28;119566;-76
2021/10/23 04:53:00;;;;;;;16.55;2.47;;;;;;;12.88;61.51;101528.59;4822740;28;121448;-76
2021/10/23 04:55:26;;;;;;;14.27;2.30;;;;;;;12.81;61.59;101517.84;4804490;29;120188;-75
2021/10/23 04:57:51;;;;;;;19.10;2.92;;;;;;;12.84;61.72;101532.69;4826099;28;119575;-76
2021/10/23 05:00:17;;;;;;;18.75;2.78;;;;;;;12.83;61.88;101533.91;4807010;28;121938;-76
2021/10/23 05:02:42;;;;;;;20.10;2.85;;;;;;;12.79;61.79;101541.53;4824520;28;119509;-76
2021/10/23 05:05:09;;;;;;;17.25;2.58;;;;;;;12.75;61.45;101538.09;4827577;28;120730;-75
2021/10/23 05:07:34;;;;;;;16.92;2.80;;;;;;;12.72;61.56;101531.50;4822420;28;119815;-76
2021/10/23 05:10:00;;;;;;;18.40;2.40;;;;;;;12.70;61.93;101544.94;4810975;29;119761;-76
2021/10/23 05:12:26;;;;;;;19.27;2.55;;;;;;;12.65;62.09;101547.50;4815420;29;119729;-77
2021/10/23 05:14:51;;;;;;;17.08;2.67;;;;;;;12.62;62.03;101551.91;4822285;28;119459;-76
2021/10/23 05:17:17;;;;;;;14.30;2.70;;;;;;;12.57;62.01;101542.25;4830690;28;119497;-76
2021/10/23 05:19:43;;;;;;;24.48;2.72;;;;;;;12.49;61.64;101540.13;4811910;28;120939;-76
2021/10/23 05:22:08;;;;;;;16.80;2.80;;;;;;;12.49;62.01;101556.66;4821817;28;120047;-76
2021/10/23 05:24:34;;;;;;;18.08;2.42;;;;;;;12.42;62.55;101540.38;4825119;28;119619;-76
2021/10/23 05:27:00;;;;;;;18.30;2.60;;;;;;;12.40;62.37;101548.31;4814289;28;121191;-76
2021/10/23 05:29:25;;;;;;;17.85;2.55;;;;;;;12.45;62.38;101553.25;4811180;29;120275;-76
2021/10/23 05:31:51;;;;;;;16.40;2.75;;;;;;;12.45;62.63;101564.25;4828050;28;119482;-76
2021/10/23 05:34:16;;;;;;;16.83;2.72;;;;;;;12.46;62.49;101565.78;4825160;28;119553;-76
2021/10/23 05:36:42;;;;;;;16.40;3.33;;;;;;;12.47;62.67;101572.84;4822759;28;121180;-76
2021/10/23 05:39:08;;;;;;;15.40;2.63;;;;;;;12.40;62.74;101559.31;4813773;28;120468;-76
2021/10/23 05:41:33;;;;;;;17.85;2.45;;;;;;;12.43;62.46;101580.44;4826934;28;119401;-76
2021/10/23 05:43:59;;;;;;;17.88;3.10;;;;;;;12.44;62.42;101593.75;4795801;28;120866;-76
2021/10/23 05:46:25;;;;;;;14.85;2.78;;;;;;;12.43;62.20;101592.22;4844542;28;119662;-77
2021/10/23 05:48:50;;;;;;;15.38;2.45;;;;;;;12.44;62.66;101598.47;4810414;28;119696;-75
2021/10/23 05:51:16;;;;;;;19.50;3.13;;;;;;;12.40;62.66;101595.84;4824622;28;119874;-76
2021/10/23 05:53:42;;;;;;;16.55;2.60;;;;;;;12.45;62.67;101598.03;4821443;28;119928;-76
2021/10/23 05:56:07;;;;;;;13.70;2.15;;;;;;;12.44;62.76;101591.00;4820113;28;119787;-76
2021/10/23 05:58:33;;;;;;;14.45;2.30;;;;;;;12.47;62.90;101603.09;4823780;28;119690;-76
2021/10/23 06:01:05;;;;;;;15.23;2.42;;;;;;;12.52;62.94;101610.81;4828888;28;120370;-76
2021/10/23 06:03:33;;;;;;;13.82;2.45;;;;;;;12.53;62.89;101623.34;4818917;28;119516;-76
2021/10/23 06:06:00;;;;;;;17.95;2.53;;;;;;;12.55;62.63;101629.22;4839637;28;120056;-75
2021/10/23 06:08:26;;;;;;;20.65;2.53;;;;;;;12.56;62.74;101630.75;4822635;28;119419;-76
2021/10/23 06:10:51;;;;;;;18.95;2.72;;;;;;;12.54;62.61;101622.94;4798915;28;120690;-75
2021/10/23 06:13:18;;;;;;;17.23;2.55;;;;;;;12.55;62.78;101629.97;4827715;28;119916;-76
2021/10/23 06:15:43;;;;;;;20.95;2.75;;;;;;;12.55;62.52;101631.97;4813892;29;120122;-76
2021/10/23 06:18:09;;;;;;;16.40;2.28;;;;;;;12.54;62.58;101630.41;4826029;28;123522;-75
2021/10/23 06:20:35;;;;;;;13.45;2.50;;;;;;;12.47;62.67;101630.63;4821190;28;119513;-76
2021/10/23 06:23:04;;;;;;;18.10;3.03;;;;;;;12.50;62.77;101649.00;4813709;28;119711;-76
2021/10/23 06:25:29;;;;;;;18.15;2.72;;;;;;;12.47;62.98;101652.63;4823114;28;120285;-76
2021/10/23 06:27:56;;;;;;;22.50;2.70;;;;;;;12.46;62.58;101662.09;4806287;29;119574;-75
2021/10/23 06:30:24;;;;;;;14.07;2.72;;;;;;;12.44;62.90;101672.78;4828186;28;122575;-75
2021/10/23 06:32:52;;;;;;;17.23;2.42;;;;;;;12.38;62.68;101682.78;4809566;29;119598;-76
2021/10/23 06:35:18;;;;;;;10.52;2.13;;;;;;;12.39;62.52;101695.34;4809662;28;119697;-76
2021/10/23 06:37:47;;;;;;;15.38;2.60;;;;;;;12.38;62.64;101704.81;4827483;28;119533;-76
2021/10/23 06:40:17;;;;;;;14.95;2.70;;;;;;;12.39;62.63;101706.34;4822837;28;119343;-76
2021/10/23 06:42:43;;;;;;;13.55;2.10;;;;;;;12.39;62.44;101703.59;4830346;28;119894;-76
2021/10/23 06:45:11;;;;;;;13.65;2.72;;;;;;;12.44;63.04;101709.31;4828146;28;119563;-76
2021/10/23 06:47:38;;;;;;;15.82;2.20;;;;;;;12.45;62.61;101704.59;4827337;28;119728;-76
2021/10/23 06:50:06;;;;;;;14.70;2.75;;;;;;;12.48;62.28;101714.72;4830727;28;120500;-76
2021/10/23 06:52:32;;;;;;;14.43;2.53;;;;;;;12.46;62.02;101706.91;4825208;28;119856;-76
2021/10/23 06:55:01;;;;;;;11.25;2.38;;;;;;;12.51;62.53;101719.34;4823443;28;119580;-76
2021/10/23 06:57:27;;;;;;;18.10;2.83;;;;;;;12.52;62.46;101726.38;4822171;28;119599;-75
2021/10/23 06:59:53;;;;;;;12.60;2.05;;;;;;;12.52;62.53;101726.38;4816431;28;119779;-76
2021/10/23 07:02:18;;;;;;;17.58;3.13;;;;;;;12.49;61.81;101730.78;4821963;28;119833;-76
2021/10/23 07:04:44;;;;;;;12.50;2.03;;;;;;;12.46;62.00;101723.41;4810105;28;119583;-76
2021/10/23 07:07:10;;;;;;;14.43;2.65;;;;;;;12.53;61.86;101739.72;4823741;28;120218;-76
2021/10/23 07:09:35;;;;;;;21.83;2.67;;;;;;;12.47;61.89;101740.69;4806951;28;119629;-76
2021/10/23 07:12:01;;;;;;;18.48;2.80;;;;;;;12.58;61.60;101763.19;4823660;28;122167;-76
2021/10/23 07:14:33;;;;;;;14.60;2.35;;;;;;;12.61;61.75;101770.56;4814661;29;120822;-76
2021/10/23 07:16:59;;;;;;;16.85;2.88;;;;;;;12.64;61.71;101763.41;4823615;28;120659;-76
2021/10/23 07:19:24;;;;;;;17.00;2.90;;;;;;;12.67;62.09;101776.28;4823743;28;120205;-75
2021/10/23 07:21:50;;;;;;;17.60;2.85;;;;;;;12.71;62.37;101774.97;4825258;28;123571;-76
2021/10/23 07:24:19;;;;;;;13.45;2.22;;;;;;;12.74;62.48;101774.09;4822510;28;119383;-76
2021/10/23 07:26:46;;;;;;;12.95;2.83;;;;;;;12.82;62.55;101775.44;4826176;28;119661;-76
2021/10/23 07:29:13;;;;;;;13.43;2.15;;;;;;;12.87;62.34;101783.16;4827065;28;119659;-76
2021/10/23 07:31:41;;;;;;;10.38;2.38;;;;;;;12.90;62.34;101782.28;4809118;28;121080;-76
2021/10/23 07:34:10;;;;;;;15.13;2.80;;;;;;;12.95;62.29;101796.69;4810469;28;120540;-76
2021/10/23 07:36:35;;;;;;;14.07;2.78;;;;;;;12.97;62.54;101800.56;4821883;28;121236;-76
2021/10/23 07:39:01;;;;;;;13.65;2.20;;;;;;;12.96;62.58;101804.53;4826461;28;119925;-75
2021/10/23 07:41:26;;;;;;;15.48;2.60;;;;;;;12.92;62.20;101801.09;4820810;28;119807;-75
2021/10/23 07:43:52;;;;;;;18.95;2.50;;;;;;;13.03;62.58;101809.84;4820473;28;119587;-76
2021/10/23 07:46:18;;;;;;;14.52;2.50;;;;;;;13.06;61.71;101810.94;4823150;28;119854;-76
2021/10/23 07:48:43;;;;;;;15.45;2.78;;;;;;;13.10;61.89;101823.38;4815168;28;120124;-76
2021/10/23 07:51:10;;;;;;;13.50;2.30;;;;;;;13.13;62.14;101818.97;4812987;28;120031;-75
2021/10/23 07:53:36;;;;;;;12.55;2.47;;;;;;;13.15;61.91;101819.31;4826048;28;119915;-76
2021/10/23 07:56:01;;;;;;;21.88;2.53;;;;;;;13.19;61.96;101828.25;4822420;28;119920;-76
2021/10/23 07:58:27;;;;;;;15.00;2.10;;;;;;;13.26;61.67;101835.56;4823530;28;119572;-76
2021/10/23 08:00:53;;;;;;;13.43;2.17;;;;;;;13.32;61.34;101837.31;4796167;29;120117;-76
2021/10/23 08:03:19;;;;;;;15.85;2.47;;;;;;;13.36;61.66;101846.22;4792132;29;119726;-77
2021/10/23 08:05:44;;;;;;;15.35;2.28;;;;;;;13.41;61.57;101851.19;4824478;28;119583;-76
2021/10/23 08:08:10;;;;;;;9.00;1.80;;;;;;;13.46;61.36;101866.41;4824536;28;119849;-76
2021/10/23 08:10:36;;;;;;;14.25;2.25;;;;;;;13.47;61.92;101863.19;4816345;29;121276;-76
2021/10/23 08:13:06;;;;;;;13.70;2.00;;;;;;;13.52;61.76;101857.16;4812991;28;121364;-76
2021/10/23 08:15:33;;;;;;;13.15;1.77;;;;;;;13.60;61.37;101865.97;4806376;29;119803;-76
2021/10/23 08:18:01;;;;;;;10.75;1.90;;;;;;;13.64;61.62;101871.34;4827308;28;119704;-76
2021/10/23 08:20:27;;;;;;;14.15;2.60;;;;;;;13.67;61.44;101862.19;4808965;28;119896;-76
2021/10/23 08:22:53;;;;;;;13.52;2.00;;;;;;;13.75;60.72;101878.09;4822663;28;119815;-76
2021/10/23 08:25:19;;;;;;;14.40;2.33;;;;;;;13.77;61.02;101885.91;4821798;28;119524;-75
2021/10/23 08:27:45;;;;;;;13.77;2.47;;;;;;;13.85;60.30;101894.72;4842276;28;119608;-76
2021/10/23 08:30:14;;;;;;;16.15;2.30;;;;;;;13.90;60.33;101897.69;4807654;28;121424;-76
2021/10/23 08:32:43;;;;;;;14.57;2.65;;;;;;;13.94;60.30;101901.09;4822521;28;120161;-76
2021/10/23 08:35:10;;;;;;;18.90;2.45;;;;;;;14.00;60.88;101893.81;4824306;28;121186;-76
2021/10/23 08:37:37;;;;;;;12.77;2.38;;;;;;;14.06;60.45;101900.31;4822330;28;121947;-76
2021/10/23 08:40:04;;;;;;;14.73;2.25;;;;;;;14.08;60.27;101905.38;4812295;29;120884;-75
2021/10/23 08:42:30;;;;;;;16.13;2.42;;;;;;;14.07;60.25;101893.59;4805500;28;120677;-76
2021/10/23 08:44:59;;;;;;;12.13;2.33;;;;;;;14.12;59.95;101906.81;4824669;28;119949;-76
2021/10/23 08:47:28;;;;;;;11.93;1.98;;;;;;;14.17;60.52;101910.22;4837828;28;121544;-75
2021/10/23 08:49:57;;;;;;;15.73;2.00;;;;;;;14.19;60.89;101903.03;4805477;28;120218;-76
2021/10/23 08:52:24;;;;;;;12.80;2.28;;;;;;;14.25;60.56;101903.25;4809984;29;120662;-76
2021/10/23 08:54:49;;;;;;;15.93;2.50;;;;;;;14.25;59.84;101906.78;4825818;28;121498;-76
2021/10/23 08:57:15;;;;;;;18.45;2.10;;;;;;;14.32;60.12;101911.28;4823513;28;120865;-76
2021/10/23 08:59:42;;;;;;;10.50;2.17;;;;;;;14.38;59.60;101924.06;4822162;28;122625;-76
2021/10/23 09:02:10;;;;;;;20.42;2.60;;;;;;;14.38;59.62;101915.78;4808928;28;120099;-76
2021/10/23 09:04:37;;;;;;;15.63;2.53;;;;;;;14.39;59.39;101917.31;4824146;28;120782;-76
2021/10/23 09:07:23;;;;;;;23.80;2.95;;;;;;;14.47;59.91;101928.94;4805215;28;121168;-77
2021/10/23 09:09:56;;;;;;;12.27;2.35;;;;;;;14.50;59.73;101925.28;4810971;28;119967;-76
2021/10/23 09:12:25;;;;;;;17.67;2.73;;;;;;;14.53;59.40;101929.13;4819849;28;119687;-76
2021/10/23 09:14:57;;;;;;;9.27;1.95;;;;;;;14.54;60.16;101928.69;4818309;28;120492;-76
2021/10/23 09:17:23;;;;;;;11.32;2.20;;;;;;;14.53;59.67;101929.13;4815189;28;121227;-75
2021/10/23 09:19:50;;;;;;;14.52;2.55;;;;;;;14.63;59.28;101944.56;4827592;28;119852;-76
2021/10/23 09:22:37;;;;;;;14.75;2.35;;;;;;;14.60;59.04;101939.94;4825413;28;121967;-76
2021/10/23 09:25:30;;;;;;;14.18;2.08;;;;;;;14.65;60.17;101951.16;4809428;28;119906;-76
2021/10/23 09:28:04;;;;;;;12.73;1.92;;;;;;;14.70;60.02;101953.38;4825566;28;119721;-76
2021/10/23 09:30:36;;;;;;;16.23;2.83;;;;;;;14.74;59.64;101950.50;4828117;28;120293;-76
2021/10/23 09:33:15;;;;;;;11.15;2.08;;;;;;;14.77;59.45;101957.88;4822883;28;119643;-76
2021/10/23 09:35:43;;;;;;;15.90;2.35;;;;;;;14.79;59.20;101957.44;4826963;28;125580;-76
2021/10/23 09:38:11;;;;;;;12.43;2.13;;;;;;;14.81;58.26;101957.75;4824282;28;121734;-76
2021/10/23 09:40:38;;;;;;;13.93;2.20;;;;;;;14.82;58.44;101962.81;4822453;28;119582;-76
2021/10/23 09:43:14;;;;;;;17.38;2.28;;;;;;;14.86;58.48;101970.97;4811924;29;120957;-76
2021/10/23 09:46:02;;;;;;;15.32;2.05;;;;;;;14.87;58.46;101962.25;4821801;28;120848;-76
2021/10/23 09:48:50;;;;;;;13.00;2.28;;;;;;;14.93;58.82;101979.81;4820303;28;121049;-76
2021/10/23 09:51:19;;;;;;;19.60;2.50;;;;;;;14.97;58.38;101983.22;4820671;28;121082;-76
2021/10/23 09:53:45;;;;;;;13.75;2.53;;;;;;;14.99;57.86;101986.28;4822179;28;119309;-76
2021/10/23 09:56:33;;;;;;;12.82;1.75;;;;;;;15.04;57.58;101987.69;4822213;28;120176;-77
2021/10/23 09:59:01;;;;;;;13.30;2.38;;;;;;;15.05;57.10;101978.97;4824259;28;119981;-76
2021/10/23 10:01:32;;;;;;;13.00;2.15;;;;;;;15.07;56.82;101989.56;4829204;28;119935;-76
2021/10/23 10:04:09;;;;;;;10.60;2.15;;;;;;;15.11;56.36;101998.50;4822199;28;119913;-76
2021/10/23 10:06:50;;;;;;;12.15;2.47;;;;;;;15.10;57.26;101990.66;4804917;28;122017;-77
2021/10/23 10:09:20;;;;;;;13.35;2.17;;;;;;;15.19;57.32;101999.78;4821410;28;119950;-76
2021/10/23 10:11:50;;;;;;;12.65;2.83;;;;;;;15.20;56.06;102009.63;4824968;28;119501;-76
2021/10/23 10:14:17;;;;;;;14.45;2.05;;;;;;;15.22;55.17;102006.41;4807559;28;121526;-77
2021/10/23 10:16:45;;;;;;;9.73;2.05;;;;;;;15.19;56.15;101999.03;4819868;28;120847;-75
2021/10/23 10:19:19;;;;;;;13.77;2.30;;;;;;;15.24;55.70;102003.97;4820712;28;119883;-75
2021/10/23 10:21:46;;;;;;;14.95;2.42;;;;;;;15.25;55.27;102014.56;4823337;28;120760;-76
2021/10/23 10:24:25;;;;;;;14.70;2.28;;;;;;;15.25;55.52;102003.50;4828115;28;121144;-76
2021/10/23 10:27:15;;;;;;;10.85;2.05;;;;;;;15.28;55.34;102021.97;4820788;28;119978;-76
2021/10/23 10:29:56;;;;;;;16.05;2.67;;;;;;;15.28;55.55;102021.97;4825747;28;119735;-75
2021/10/23 10:32:41;;;;;;;12.13;2.20;;;;;;;15.29;54.54;102017.97;4806212;28;120833;-76
2021/10/23 10:35:31;;;;;;;10.85;2.10;;;;;;;15.29;54.59;102017.97;4820788;28;120130;-76
2021/10/23 10:38:24;;;;;;;14.30;2.38;;;;;;;15.20;54.63;102004.09;4822809;28;120022;-76
2021/10/23 10:43:19;;;;;;;8.35;1.67;;;;;;;15.36;54.15;102026.00;4823856;28;119880;-75
2021/10/23 10:45:48;;;;;;;22.77;2.47;;;;;;;15.36;53.89;102026.00;4823254;28;119592;-76
2021/10/23 10:48:17;;;;;;;12.98;2.55;;;;;;;15.39;53.78;102023.56;4809187;28;121143;-76
2021/10/23 10:50:44;;;;;;;14.80;2.30;;;;;;;15.41;54.15;102026.66;4824509;28;120858;-76
2021/10/23 10:53:19;;;;;;;12.25;1.85;;;;;;;15.44;54.54;102037.59;4825616;28;119845;-76
2021/10/23 10:55:48;;;;;;;17.63;3.17;;;;;;;15.46;53.88;102040.66;4824936;28;120748;-76
2021/10/23 10:58:15;;;;;;;9.63;1.83;;;;;;;15.49;55.22;102039.75;4822970;28;119780;-75
2021/10/23 11:00:52;;;;;;;11.05;2.25;;;;;;;15.55;53.93;102040.72;4810716;29;119681;-75
2021/10/23 11:04:03;;;;;;;13.35;2.20;;;;;;;15.57;53.86;102040.25;4810753;29;120682;-75
2021/10/23 11:09:15;;;;;;;6.07;1.48;;;;;;;15.61;54.01;102036.19;4801521;28;119991;-76
2021/10/23 11:14:32;;;;;;;;;;;;;;;;;;;;;
2021/10/23 11:16:53;;;;;;;7.78;1.55;;;;;;;15.65;54.45;102049.88;4825393;28;121148;-77
2021/10/23 11:19:22;;;;;;;9.13;2.05;;;;;;;15.68;54.57;102054.50;4820897;28;120158;-77
2021/10/23 11:22:02;;;;;;;13.77;2.75;;;;;;;15.68;54.32;102037.91;4821538;28;120202;-76